• Join FlightAware (Why Join?)
  • Login
  • US Flag 
10:44AM EDT


 

Airport Tracker/Info


-or-


 

Live Flight TrackerFlight Track Log ✈ VIR19 ✈ 06-Mar-2014 ✈ EGLL / LHR - KSFO

Flight Track Log - Related Links

Times and Time Zones

All times are in EST time to prevent confusion due to time zone crossing. See the VIR19 flight status page for this flight to view local times or setup timezone preferences in your user account.

Time Position Orientation Groundspeed Altitude Reporting Facility
EST Latitude Longitude Course Direction KTS MPH feet Rate Location/Type
06:16AM 51.4776 -0.4837 272° West 161 185 300  Level FlightAware ADS-B
06:16AM 51.4778 -0.4968 270° West 162 186 700 1,860 Climbing FlightAware ADS-B (EGLF / FAB)
06:16AM 51.4778 -0.5028 270° West 164 189 800 1,680 Climbing FlightAware ADS-B
06:17AM 51.4777 -0.5088 270° West 163 188 900 1,680 Climbing FlightAware ADS-B
06:17AM 51.4775 -0.5209 268° West 164 189 1,200 1,800 Climbing FlightAware ADS-B
06:17AM 51.4774 -0.5233 268° West 163 188 1,300 2,400 Climbing FlightAware ADS-B
06:17AM 51.4774 -0.5270 270° West 163 188 1,400 1,500 Climbing FlightAware ADS-B
06:17AM 51.4772 -0.5391 269° West 169 194 1,600 1,380 Climbing FlightAware ADS-B
06:17AM 51.4772 -0.5430 270° West 170 196 1,700 840 Climbing FlightAware ADS-B
06:17AM 51.4775 -0.5481 275° West 177 204 1,700  Level FlightAware ADS-B
06:17AM 51.4772 -0.5444 279° West 180 207 1,700 1,980 Level FlightAware ADS-B (EGLF / FAB)
06:17AM 51.4778 -0.5509 282° West 183 211 1,800 960 Climbing FlightAware ADS-B
06:17AM 51.4790 -0.5561 288° West 190 219 1,800  Level FlightAware ADS-B
06:17AM 51.4795 -0.5588 292° West 194 223 1,800  Level FlightAware ADS-B
06:17AM 51.4809 -0.5628 296° West 200 230 1,800 1,500 Level FlightAware ADS-B
06:17AM 51.4814 -0.5656 299° West 205 236 1,900 1,200 Climbing FlightAware ADS-B
06:17AM 51.4831 -0.5695 300° West 208 239 1,900 1,200 Level FlightAware ADS-B
06:17AM 51.4839 -0.5722 300° West 210 242 2,000 1,620 Climbing FlightAware ADS-B
06:18AM 51.4891 -0.5858 302° West 221 254 2,200 1,260 Climbing FlightAware ADS-B
06:18AM 51.4911 -0.5901 301° West 223 257 2,300 1,200 Climbing FlightAware ADS-B (EGLF / FAB)
06:18AM 51.4921 -0.5930 301° West 226 260 2,300 1,200 Level FlightAware ADS-B
06:18AM 51.4964 -0.6048 298° West 231 266 2,500 1,200 Climbing FlightAware ADS-B
06:18AM 51.4968 -0.6062 299° West 232 267 2,500  Level FlightAware ADS-B
06:18AM 51.5009 -0.6188 296° West 240 276 2,500 480 Level FlightAware ADS-B
06:18AM 51.5031 -0.6270 296° West 244 281 2,600 1,980 Climbing FlightAware ADS-B
06:18AM 51.5042 -0.6303 296° West 246 283 2,700 1,680 Climbing FlightAware ADS-B
06:18AM 51.5063 -0.6367 297° West 248 285 2,800 1,620 Climbing FlightAware ADS-B
06:18AM 51.5104 -0.6481 300° West 251 289 3,000 1,620 Climbing FlightAware ADS-B
06:18AM 51.5128 -0.6546 304° West 255 293 3,100 1,200 Climbing FlightAware ADS-B
06:18AM 51.5135 -0.6562 304° West 256 295 3,100 1,500 Level FlightAware ADS-B
06:18AM 51.5161 -0.6623 309° West 260 299 3,200 1,500 Climbing FlightAware ADS-B
06:18AM 51.5165 -0.6623 309° West 261 300 3,200 1,980 Level FlightAware ADS-B
06:18AM 51.5186 -0.6667 313° West 265 305 3,300 1,200 Climbing FlightAware ADS-B
06:18AM 51.5207 -0.6695 317° Northwest 270 311 3,300  Level FlightAware ADS-B
06:18AM 51.5217 -0.6707 318° Northwest 271 312 3,300  Level FlightAware ADS-B
06:18AM 51.5223 -0.6720 320° Northwest 273 314 3,300  Level FlightAware ADS-B
06:19AM 51.5257 -0.6758 326° Northwest 280 322 3,300 960 Level FlightAware ADS-B
06:19AM 51.5291 -0.6790 331° Northwest 286 329 3,400 1,500 Climbing FlightAware ADS-B
06:19AM 51.5291 -0.6790 330° Northwest 283 326 3,400 1,980 Level FlightAware ADS-B (EGLF / FAB)
06:19AM 51.5330 -0.6818 337° Northwest 291 335 3,500 1,200 Climbing FlightAware ADS-B
06:19AM 51.5371 -0.6840 342° North 295 339 3,500 1,680 Level FlightAware ADS-B
06:19AM 51.5427 -0.6865 349° North 299 344 3,700 3,000 Climbing FlightAware ADS-B
06:19AM 51.5449 -0.6869 352° North 300 345 3,800 2,400 Climbing FlightAware ADS-B
06:19AM 51.5491 -0.6876 356° North 301 346 3,900 2,400 Climbing FlightAware ADS-B
06:19AM 51.5518 -0.6877 359° North 302 348 4,000 3,960 Climbing FlightAware ADS-B
06:19AM 51.5538 -0.6876 360° North 301 346 4,100 4,500 Climbing FlightAware ADS-B
06:19AM 51.5584 -0.6874 North 300 345 4,300 4,500 Climbing FlightAware ADS-B
06:19AM 51.5590 -0.6874 North 300 345 4,400 3,000 Climbing FlightAware ADS-B
06:19AM 51.5695 -0.6863 North 299 344 4,700 2,640 Climbing FlightAware ADS-B
06:19AM 51.5710 -0.6862 North 299 344 4,800 2,640 Climbing FlightAware ADS-B
06:19AM 51.5805 -0.6860 North 301 346 5,100 2,640 Climbing FlightAware ADS-B
06:19AM 51.5841 -0.6860 359° North 299 344 5,200 3,960 Climbing FlightAware ADS-B
06:19AM 51.5820 -0.6860 359° North 299 344 5,300 3,000 Climbing FlightAware ADS-B (EGLF / FAB)
06:19AM 51.5855 -0.6860 359° North 300 345 5,300 3,420 Level FlightAware ADS-B
06:19AM 51.5914 -0.6863 358° North 295 339 5,700 3,000 Climbing FlightAware ADS-B (EGLF / FAB)
06:20AM 51.6061 -0.6875 357° North 295 339 6,000 1,800 Climbing FlightAware ADS-B
06:20AM 51.6083 -0.6876 357° North 296 341 6,000 1,200 Level FlightAware ADS-B
06:20AM 51.6119 -0.6880 356° North 297 342 6,100 2,520 Climbing FlightAware ADS-B (EGLC / LCY)
06:20AM 51.6203 -0.6889 356° North 297 342 6,300 3,000 Climbing FlightAware ADS-B
06:20AM 51.6218 -0.6889 358° North 298 343 6,400 1,980 Climbing FlightAware ADS-B
06:20AM 51.6260 -0.6890 North 299 344 6,500 960 Climbing FlightAware ADS-B (EGLC / LCY)
06:20AM 51.6289 -0.6888 North 301 346 6,500 1,500 Level FlightAware ADS-B
06:20AM 51.6325 -0.6881 North 301 346 6,600 2,400 Climbing FlightAware ADS-B
06:20AM 51.6368 -0.6870 11° North 304 350 6,700 1,980 Climbing FlightAware ADS-B
06:20AM 51.6392 -0.6860 13° North 306 352 6,800 1,680 Climbing FlightAware ADS-B (EGLC / LCY)
06:20AM 51.6457 -0.6835 16° North 307 353 6,900 1,200 Climbing FlightAware ADS-B
06:20AM 51.6463 -0.6829 17° North 308 354 6,900 1,980 Level FlightAware ADS-B (EGLC / LCY)
06:20AM 51.6463 -0.6829 17° North 309 356 7,000 1,200 Climbing FlightAware ADS-B
06:20AM 51.6524 -0.6801 11° North 304 350 7,000  Level FlightAware ADS-B (EGLF / FAB)
06:20AM 51.6660 -0.6730 19° North 310 357 7,000  Level FlightAware ADS-B
06:20AM 51.6719 -0.6700 19° North 311 358 7,000  Level FlightAware ADS-B (EGLF / FAB)
06:21AM 51.6865 -0.6616 19° North 311 358 7,000  Level FlightAware ADS-B
06:21AM 51.7018 -0.6525 19° North 311 358 7,000  Level FlightAware ADS-B
06:21AM 51.7080 -0.6494 19° North 311 358 7,000  Level FlightAware ADS-B
06:21AM 51.7278 -0.6381 19° North 311 358 7,000  Level FlightAware ADS-B (EGLC / LCY)
06:21AM 51.7310 -0.6365 19° North 311 358 7,000  Level FlightAware ADS-B
06:21AM 51.7438 -0.6298 19° North 311 358 7,000  Level FlightAware ADS-B (EGLF / FAB)
06:21AM 51.7538 -0.6238 19° North 311 358 7,000  Level FlightAware ADS-B
06:22AM 51.7744 -0.6124 19° North 310 357 7,000  Level FlightAware ADS-B
06:22AM 51.7756 -0.6116 19° North 310 357 7,000  Level FlightAware ADS-B (EGLC / LCY)
06:22AM 51.7952 -0.6012 19° North 311 358 7,000  Level FlightAware ADS-B
06:22AM 51.7960 -0.6005 19° North 310 357 7,000 360 Level FlightAware ADS-B (EPRZ / RZE)
06:22AM 51.8160 -0.5899 19° North 313 360 7,100 780 Climbing FlightAware ADS-B
06:22AM 51.8174 -0.5884 19° North 313 360 7,200 2,580 Climbing FlightAware ADS-B (EGLC / LCY)
06:22AM 51.8381 -0.5769 19° North 314 361 7,800 2,160 Climbing FlightAware ADS-B
06:22AM 51.8436 -0.5739 19° North 315 362 7,900 2,220 Climbing FlightAware ADS-B
06:23AM 51.8610 -0.5648 19° North 317 365 8,400 2,460 Climbing FlightAware ADS-B
06:23AM 51.8678 -0.5609 19° North 318 366 8,600 2,220 Climbing FlightAware ADS-B
06:23AM 51.8823 -0.5533 19° North 319 367 9,000 1,980 Climbing FlightAware ADS-B
06:23AM 51.8884 -0.5495 19° North 319 367 9,100 2,400 Climbing FlightAware ADS-B (EGLF / FAB)
06:23AM 51.9041 -0.5410 19° North 320 368 9,600 2,220 Climbing FlightAware ADS-B
06:23AM 51.9101 -0.5379 19° North 320 368 9,700 2,160 Climbing FlightAware ADS-B (EGTR / ETR)
06:23AM 51.9190 -0.5326 17° North 321 369 10,000 2,220 Climbing FlightAware ADS-B (EGWE)
06:23AM 51.9222 -0.5313 16° North 322 371 10,000 1,200 Level FlightAware ADS-B
06:23AM 51.9257 -0.5301 18° North 321 369 10,100 1,800 Climbing FlightAware ADS-B (EGLF / FAB)
06:24AM 51.9370 -0.5277 North 324 373 10,300 -2,280 Climbing FlightAware ADS-B
06:24AM 51.9258 -0.5301 19° North 320 368 9,800  Descending FlightAware ADS-B (EGLC / LCY)
06:24AM 51.9449 -0.5282 354° North 326 375 10,300 3,000 Climbing FlightAware ADS-B
06:24AM 51.9556 -0.5317 344° North 328 377 10,400 720 Climbing FlightAware ADS-B
06:24AM 51.9399 -0.5277 344° North 328 377 10,400 1,980 Level FlightAware ADS-B (EGLF / FAB)
06:24AM 51.9649 -0.5377 338° Northwest 331 381 10,600 1,980 Climbing FlightAware ADS-B
06:24AM 51.9665 -0.5386 340° North 328 377 10,600 900 Level FlightAware ADS-B
06:24AM 51.9922 -0.5579 334° Northwest 336 387 10,900 960 Climbing FlightAware ADS-B (EGBJ / GLO)
06:24AM 52.0098 -0.5711 335° Northwest 353 406 11,100 1,080 Climbing FlightAware ADS-B
06:25AM 52.0589 -0.6080 335° Northwest 377 434 11,700 1,200 Climbing FlightAware ADS-B
06:25AM 52.0624 -0.6104 335° Northwest 370 426 11,800 960 Climbing FlightAware ADS-B (EGHO)
06:25AM 52.1092 -0.6456 335° Northwest 399 459 12,200 960 Climbing FlightAware ADS-B
06:25AM 52.1107 -0.6468 335° Northwest 394 453 12,300 1,260 Climbing FlightAware ADS-B (EGNR / CEG)
06:26AM 52.1655 -0.6868 335° Northwest 418 481 12,900 1,260 Climbing FlightAware ADS-B
06:26AM 52.1858 -0.7028 335° Northwest 414 476 13,200 1,740 Climbing FlightAware ADS-B (EGBJ / GLO)
06:26AM 52.2220 -0.7298 335° Northwest 425 489 13,800 1,680 Climbing FlightAware ADS-B
06:27AM 52.2423 -0.7447 335° Northwest 429 494 14,100 1,740 Climbing FlightAware ADS-B
06:27AM 52.2775 -0.7721 335° Northwest 431 496 14,700 1,680 Climbing FlightAware ADS-B
06:27AM 52.2983 -0.7872 335° Northwest 433 498 15,100 1,620 Climbing FlightAware ADS-B (EGLF / FAB)
06:28AM 52.3429 -0.8217 335° Northwest 439 505 15,700 1,560 Climbing FlightAware ADS-B
06:28AM 52.3476 -0.8244 335° Northwest 440 506 15,700 4,260 Level FlightAware ADS-B (EGXP / SQZ)
06:28AM 52.3563 -0.8314 336° Northwest 441 507 16,200 1,860 Climbing FlightAware ADS-B
06:28AM 52.4025 -0.8661 336° Northwest 444 511 16,600 1,200 Climbing FlightAware ADS-B
06:28AM 52.4108 -0.8718 336° Northwest 444 511 16,800 3,180 Climbing FlightAware ADS-B (EGNR / CEG)
06:29AM 52.4607 -0.9087 335° Northwest 430 495 18,300 2,880 Climbing FlightAware ADS-B
06:29AM 52.4703 -0.9171 335° Northwest 430 495 18,400 1,800 Climbing FlightAware ADS-B (EGLF / FAB)
06:29AM 52.4795 -0.9239 336° Northwest 434 499 18,600 1,980 Climbing FlightAware ADS-B
06:29AM 52.4869 -0.9295 335° Northwest 427 491 18,700 780 Climbing FlightAware ADS-B (EGHO)
06:29AM 52.5337 -0.9646 335° Northwest 445 512 19,000 720 Climbing FlightAware ADS-B
06:30AM 52.5630 -0.9878 335° Northwest 452 520 19,200 840 Climbing FlightAware ADS-B
06:30AM 52.5878 -1.0084 331° Northwest 457 526 19,400 1,200 Climbing FlightAware ADS-B
06:30AM 52.5803 -1.0017 330° Northwest 459 528 19,600 1,320 Climbing FlightAware ADS-B (EGTR / ETR)
06:30AM 52.6445 -1.0623 330° Northwest 464 534 20,100 1,380 Climbing FlightAware ADS-B
06:30AM 52.6551 -1.0712 331° Northwest 464 534 20,300 1,320 Climbing FlightAware ADS-B
06:31AM 52.7017 -1.1153 330° Northwest 468 539 20,800 1,500 Climbing FlightAware ADS-B
06:31AM 52.7584 -1.1680 331° Northwest 470 541 21,700 1,860 Climbing FlightAware ADS-B
06:31AM 52.7665 -1.1768 331° Northwest 472 543 22,000 1,980 Climbing FlightAware ADS-B (EGGP / LPL)
06:32AM 52.7924 -1.1997 330° Northwest 465 535 22,300 1,440 Climbing FlightAware ADS-B (EGBJ / GLO)
06:32AM 52.8301 -1.2351 331° Northwest 475 547 22,700 1,260 Climbing FlightAware ADS-B
06:33AM 52.8960 -1.2959 331° Northwest 482 555 23,500 1,320 Climbing FlightAware ADS-B (EGNA)
06:33AM 52.9077 -1.3067 331° Northwest 483 556 23,600 1,380 Climbing FlightAware ADS-B
06:33AM 52.9679 -1.3632 331° Northwest 485 558 24,300 1,380 Climbing FlightAware ADS-B
06:33AM 52.9975 -1.3908 331° Northwest 493 567 24,700 1,860 Climbing FlightAware ADS-B (EGXU / HRT)
06:33AM 53.0097 -1.4021 330° Northwest 485 558 25,000 1,860 Climbing FlightAware ADS-B (EGGP / LPL)
06:34AM 53.0305 -1.4204 330° Northwest 486 559 25,200 900 Climbing FlightAware ADS-B (EGXP / SQZ)
06:34AM 53.0376 -1.4279 331° Northwest 492 566 25,200 1,200 Level FlightAware ADS-B
06:34AM 53.1081 -1.4933 331° Northwest 496 571 26,000 1,260 Climbing FlightAware ADS-B
06:35AM 53.1556 -1.5387 330° Northwest 503 579 26,500 1,440 Climbing FlightAware ADS-B (EGXP / SQZ)
06:35AM 53.1765 -1.5579 330° Northwest 502 578 26,800 1,500 Climbing FlightAware ADS-B
06:35AM 53.1722 -1.5540 331° Northwest 503 579 26,800 2,100 Level FlightAware ADS-B (EGBS)
06:35AM 53.2104 -1.5904 331° Northwest 502 578 27,400 1,920 Climbing FlightAware ADS-B
06:35AM 53.2350 -1.6132 331° Northwest 501 577 27,700 1,380 Climbing FlightAware ADS-B (EGBS)
06:36AM 53.2619 -1.6381 330° Northwest 501 577 28,000 2,100 Climbing FlightAware ADS-B
06:36AM 53.2717 -1.6476 330° Northwest 499 574 28,300 1,980 Climbing FlightAware ADS-B (EGCD)
06:36AM 53.3039 -1.6781 331° Northwest 499 574 28,700 1,680 Climbing FlightAware ADS-B
06:36AM 53.3234 -1.6971 330° Northwest 498 573 29,000 1,740 Climbing FlightAware ADS-B
06:36AM 53.3655 -1.7371 330° Northwest 497 572 29,600 1,740 Climbing FlightAware ADS-B (EGGP / LPL)
06:37AM 53.3834 -1.7542 330° Northwest 496 571 29,900 1,560 Climbing FlightAware ADS-B
06:37AM 53.4262 -1.7961 330° Northwest 495 570 30,400 1,380 Climbing FlightAware ADS-B (EGGP / LPL)
06:37AM 53.4364 -1.8055 331° Northwest 494 568 30,500 1,800 Climbing FlightAware ADS-B
06:37AM 53.4652 -1.8321 330° Northwest 492 566 31,000 1,860 Climbing FlightAware ADS-B
06:37AM 53.4614 -1.8283 330° Northwest 494 568 31,000 1,980 Level FlightAware ADS-B (EGBS)
06:37AM 53.4905 -1.8552 336° Northwest 495 570 31,400 1,560 Climbing FlightAware ADS-B (EGGP / LPL)
06:38AM 53.5071 -1.8678 337° Northwest 495 570 31,500 1,140 Climbing FlightAware ADS-B
06:38AM 53.5328 -1.8864 336° Northwest 494 568 31,800 1,320 Climbing FlightAware ADS-B
06:38AM 53.5697 -1.9137 337° Northwest 491 565 32,200 1,320 Climbing FlightAware ADS-B (EGXU / HRT)
06:39AM 53.6343 -1.9611 336° Northwest 489 563 32,900 1,260 Climbing FlightAware ADS-B (EGCC / MAN)
06:39AM 53.6480 -1.9720 336° Northwest 488 562 33,000 1,200 Climbing FlightAware ADS-B
06:39AM 53.6818 -1.9967 335° Northwest 478 550 33,400 1,620 Climbing FlightAware ADS-B (EGNR / CEG)
06:39AM 53.6872 -2.0013 336° Northwest 484 557 33,600 1,560 Climbing FlightAware ADS-B (EGAA / BFS)
06:39AM 53.7210 -2.0264 336° Northwest 485 558 33,900 780 Climbing FlightAware ADS-B
06:40AM 53.7534 -2.0516 335° Northwest 482 555 34,000 120 Climbing FlightAware ADS-B (EGCD)
06:40AM 53.8168 -2.1010 337° Northwest 482 555 34,000  Level FlightAware ADS-B (EGNT / NCL)
06:40AM 53.8282 -2.1085 336° Northwest 475 547 34,000  Level FlightAware ADS-B (EGNR / CEG)
06:41AM 53.8634 -2.1339 336° Northwest 473 544 34,000  Level FlightAware ADS-B (EGGP / LPL)
06:41AM 53.8818 -2.1489 336° Northwest 471 542 34,000  Level FlightAware ADS-B (EGNR / CEG)
06:41AM 53.9079 -2.1670 337° Northwest 480 552 34,000  Level FlightAware ADS-B
06:41AM 53.9721 -2.2148 336° Northwest 476 548 34,000  Level FlightAware ADS-B (EGXU / HRT)
06:42AM 54.0312 -2.2599 336° Northwest 474 545 34,000  Level FlightAware ADS-B (EGXU / HRT)
06:42AM 54.1015 -2.3123 336° Northwest 472 543 34,000  Level FlightAware ADS-B (EGNT / NCL)
06:43AM 54.1635 -2.3590 336° Northwest 473 544 34,000  Level FlightAware ADS-B (EGXU / HRT)
06:43AM 54.1492 -2.3485 336° Northwest 472 543 34,000  Level FlightAware ADS-B (EGFH / SWS)
06:44AM 54.2249 -2.4189 325° Northwest 464 534 34,000  Level FlightAware ADS-B (EGXU / HRT)
06:44AM 54.2771 -2.4830 325° Northwest 465 535 34,000  Level FlightAware ADS-B (EGXU / HRT)
06:44AM 54.3051 -2.5164 326° Northwest 466 536 34,000  Level FlightAware ADS-B (EGAA / BFS)
06:45AM 54.3584 -2.5762 327° Northwest 468 539 34,000  Level FlightAware ADS-B (EGAA / BFS)
06:45AM 54.3783 -2.5987 326° Northwest 462 532 34,000  Level FlightAware ADS-B (EGNR / CEG)
06:46AM 54.4371 -2.6653 327° Northwest 471 542 34,000  Level FlightAware ADS-B (EGXU / HRT)
06:46AM 54.4920 -2.7263 326° Northwest 471 542 34,000  Level FlightAware ADS-B (EGXU / HRT)
06:47AM 54.5534 -2.7983 325° Northwest 468 539 34,000  Level FlightAware ADS-B (EGXU / HRT)
06:47AM 54.6077 -2.8648 325° Northwest 468 539 34,000  Level FlightAware ADS-B (EGXU / HRT)
06:48AM 54.6620 -2.9288 325° Northwest 468 539 34,000  Level FlightAware ADS-B (EGXU / HRT)
06:48AM 54.7083 -2.9844 325° Northwest 469 540 34,000  Level FlightAware ADS-B (EGCC / MAN)
06:49AM 54.7842 -3.0768 325° Northwest 468 539 34,000  Level FlightAware ADS-B (EGPK / PIK)
06:49AM 54.8234 -3.1240 324° Northwest 460 529 34,000  Level FlightAware ADS-B
06:49AM 54.8410 -3.1453 325° Northwest 467 537 34,000  Level FlightAware ADS-B (EGNT / NCL)
06:50AM 54.8811 -3.1948 325° Northwest 466 536 34,000  Level FlightAware ADS-B (EGPF / GLA)
06:50AM 54.8984 -3.2164 325° Northwest 466 536 34,000  Level FlightAware ADS-B (EGGP / LPL)
06:50AM 54.9143 -3.2357 325° Northwest 466 536 34,000  Level FlightAware ADS-B (EGPF / GLA)
06:51AM 54.9757 -3.3114 324° Northwest 461 531 34,000  Level FlightAware ADS-B (EGPK / PIK)
06:51AM 54.9931 -3.3332 324° Northwest 461 531 34,000  Level FlightAware ADS-B (EGNR / CEG)
06:51AM 55.0124 -3.3570 324° Northwest 461 531 34,000  Level FlightAware ADS-B (EGPK / PIK)
06:51AM 55.0193 -3.3657 324° Northwest 461 531 34,000  Level FlightAware ADS-B (EGPK / PIK)
06:51AM 55.0322 -3.3810 324° Northwest 462 532 34,000  Level FlightAware ADS-B (EGNR / CEG)
06:51AM 55.0470 -3.3984 324° Northwest 461 531 34,000  Level FlightAware ADS-B (EGPK / PIK)
06:51AM 55.0523 -3.4050 324° Northwest 461 531 34,000  Level FlightAware ADS-B
06:52AM 55.0828 -3.4441 324° Northwest 462 532 34,000  Level FlightAware ADS-B (EGPK / PIK)
06:52AM 55.1264 -3.4966 324° Northwest 462 532 34,000  Level FlightAware ADS-B
06:52AM 55.1544 -3.5319 324° Northwest 462 532 34,000  Level FlightAware ADS-B
06:53AM 55.2234 -3.6177 324° Northwest 461 531 34,000  Level FlightAware ADS-B
06:53AM 55.2770 -3.6860 324° Northwest 470 541 34,000  Level FlightAware ADS-B (EGPH / EDI)
06:54AM 55.3301 -3.7524 324° Northwest 463 533 34,000  Level FlightAware ADS-B
06:54AM 55.3880 -3.8261 324° Northwest 472 543 34,000  Level FlightAware ADS-B (EGAA / BFS)
06:55AM 55.4462 -3.9000 324° Northwest 465 535 34,000  Level FlightAware ADS-B (EGAE / LDY)
06:56AM 55.5019 -3.9696 324° Northwest 472 543 34,000  Level FlightAware ADS-B (EGAA / BFS)
06:56AM 55.5698 -4.0552 324° Northwest 473 544 34,000  Level FlightAware ADS-B (EGPK / PIK)
06:57AM 55.6194 -4.1206 324° Northwest 465 535 34,000  Level FlightAware ADS-B
06:57AM 55.6853 -4.2047 324° Northwest 472 543 34,000  Level FlightAware ADS-B (EGAA / BFS)
06:58AM 55.7286 -4.2592 323° Northwest 465 535 34,000  Level FlightAware ADS-B (EGPK / PIK)
06:58AM 55.7644 -4.3071 323° Northwest 465 535 34,000  Level FlightAware ADS-B (EGPK / PIK)
06:58AM 55.8061 -4.3595 323° Northwest 465 535 34,000  Level FlightAware ADS-B (EGPK / PIK)
06:59AM 55.8712 -4.4483 320° Northwest 465 535 34,000  Level FlightAware ADS-B (EGPF / GLA)
06:59AM 55.8996 -4.4935 319° Northwest 463 533 34,000  Level FlightAware ADS-B (EGAE / LDY)
07:00AM 55.9486 -4.5771 316° Northwest 459 528 34,000  Level FlightAware ADS-B (EGPG)
07:00AM 55.9636 -4.6030 315° West 453 521 34,000  Level FlightAware ADS-B (EGAE / LDY)
07:00AM 55.9967 -4.6610 315° West 453 521 34,000  Level FlightAware ADS-B (EGPK / PIK)
07:01AM 56.0262 -4.7110 315° West 453 521 34,000  Level FlightAware ADS-B (EGAE / LDY)
07:01AM 56.0566 -4.7638 315° West 453 521 34,000  Level FlightAware ADS-B (EGPK / PIK)
07:02AM 56.1046 -4.8480 315° West 460 529 34,000  Level FlightAware UK
07:02AM 56.1170 -4.8693 315° West 454 522 34,000  Level FlightAware ADS-B (EGPK / PIK)
07:02AM 56.1627 -4.9463 315° West 455 524 34,000  Level FlightAware ADS-B (EGPK / PIK)
07:03AM 56.1932 -4.9996 315° West 455 524 34,000  Level FlightAware ADS-B (EGPK / PIK)
07:03AM 56.2165 -5.0423 316° Northwest 461 531 34,000  Level FlightAware ADS-B (EGPG)
07:03AM 56.2673 -5.1304 316° Northwest 460 529 34,000  Level FlightAware ADS-B (EGAE / LDY)
07:03AM 56.2753 -5.1438 315° West 454 522 34,000  Level FlightAware ADS-B (EGPK / PIK)
07:04AM 56.3052 -5.1969 315° West 453 521 34,000  Level FlightAware ADS-B (EGPK / PIK)
07:04AM 56.3363 -5.2529 315° West 453 521 34,000  Level FlightAware ADS-B (EGPK / PIK)
07:05AM 56.3849 -5.3384 316° Northwest 457 526 34,000  Level FlightAware ADS-B (EGAE / LDY)
07:05AM 56.4347 -5.4263 315° West 456 525 34,000  Level FlightAware ADS-B (EGPF / GLA)
07:06AM 56.4857 -5.5167 315° West 452 520 34,000  Level FlightAware ADS-B (EGPK / PIK)
07:06AM 56.5305 -5.5986 315° West 448 516 34,000  Level FlightAware ADS-B (EGAA / BFS)
07:07AM 56.5775 -5.6829 315° West 446 513 34,000  Level FlightAware ADS-B (EGAA / BFS)
07:07AM 56.6179 -5.7563 315° West 443 510 34,000  Level FlightAware ADS-B (EGPH / EDI)
07:07AM 56.6359 -5.7876 314° West 436 502 34,000  Level FlightAware ADS-B (EGPK / PIK)
07:08AM 56.6432 -5.8008 314° West 435 501 34,000  Level FlightAware ADS-B (EGPK / PIK)
07:08AM 56.6716 -5.8529 315° West 441 507 34,000  Level FlightAware ADS-B (EGAA / BFS)
07:08AM 56.7158 -5.9338 315° West 438 504 34,000  Level FlightAware ADS-B (EGPK / PIK)
07:09AM 56.7601 -6.0142 315° West 435 501 34,000  Level FlightAware ADS-B (EGAA / BFS)
07:10AM 56.8077 -6.0994 315° West 433 498 34,000  Level FlightAware ADS-B (EGAE / LDY)
07:10AM 56.8630 -6.2024 315° West 431 496 34,000  Level FlightAware ADS-B (EGAE / LDY)
07:11AM 56.9201 -6.3083 315° West 431 496 34,000  Level FlightAware ADS-B (EGAE / LDY)
07:12AM 56.9847 -6.4276 315° West 432 497 34,000  Level FlightAware ADS-B (EGAE / LDY)
07:12AM 57.0406 -6.5320 315° West 432 497 34,000  Level FlightAware ADS-B (EGAE / LDY)
07:13AM 57.0829 -6.6104 314° West 427 491 34,000  Level FlightAware ADS-B (EGAE / LDY)
07:13AM 57.1248 -6.6903 314° West 432 497 34,000  Level FlightAware UK
07:13AM 57.1373 -6.7127 314° West 427 491 34,000  Level FlightAware ADS-B (EGAE / LDY)
07:14AM 57.1878 -6.8074 313° West 427 491 34,000  Level FlightAware ADS-B (EGAE / LDY)
07:15AM 57.2403 -6.9076 313° West 427 491 34,000  Level FlightAware ADS-B (EGAE / LDY)
07:15AM 57.2988 -7.0189 313° West 429 494 34,000  Level FlightAware ADS-B (EGAE / LDY)
07:16AM 57.3756 -7.1669 313° West 436 502 34,000  Level FlightAware UK
07:16AM 57.3791 -7.1738 313° West 428 493 34,000  Level FlightAware ADS-B (EGAE / LDY)
07:17AM 57.4593 -7.3286 313° West 440 506 34,000  Level FlightAware UK
07:18AM 57.5064 -7.4047 319° Northwest 454 522 34,000  Level FlightAware UK
07:18AM 57.5571 -7.4757 323° Northwest 454 522 34,000  Level FlightAware UK
07:19AM 57.6046 -7.5515 319° Northwest 454 522 34,000  Level FlightAware UK
07:19AM 57.6533 -7.6265 321° Northwest 458 527 34,000  Level FlightAware UK
07:20AM 57.7124 -7.7150 321° Northwest 460 529 34,000  Level FlightAware UK
07:20AM 57.7624 -7.7893 322° Northwest 462 532 34,000  Level FlightAware UK
07:21AM 57.8128 -7.8644 322° Northwest 466 536 34,000  Level FlightAware UK
07:21AM 57.8634 -7.9399 322° Northwest 466 536 34,000  Level FlightAware UK
07:22AM 57.9138 -8.0161 321° Northwest 464 534 34,000  Level FlightAware UK
07:22AM 57.9640 -8.0920 321° Northwest 466 536 34,000  Level FlightAware UK
07:23AM 58.0140 -8.1687 321° Northwest 464 534 34,000  Level FlightAware UK
07:23AM 58.0639 -8.2453 321° Northwest 466 536 34,000  Level FlightAware UK
07:24AM 58.1138 -8.3221 321° Northwest 466 536 34,000  Level FlightAware UK
07:24AM 58.1636 -8.3994 321° Northwest 466 536 34,000  Level FlightAware UK
07:25AM 58.2135 -8.4768 321° Northwest 466 536 34,000  Level FlightAware UK
07:25AM 58.2634 -8.5544 321° Northwest 464 534 34,000  Level FlightAware UK
07:26AM 58.3132 -8.6321 321° Northwest 464 534 34,000  Level FlightAware UK
07:26AM 58.3628 -8.7098 321° Northwest 464 534 34,000  Level FlightAware UK
07:27AM 58.4123 -8.7875 321° Northwest 462 532 34,000  Level FlightAware UK
07:27AM 58.4618 -8.8651 321° Northwest 462 532 34,000  Level FlightAware UK
07:28AM 58.5109 -8.9432 320° Northwest 462 532 34,000  Level FlightAware UK
07:28AM 58.5600 -9.0217 320° Northwest 462 532 34,000  Level FlightAware UK
07:30AM 58.6462 -9.2276 309° West  Level Estimated
07:37AM 59.1712 -10.5220 309° West  Level Estimated
07:38AM 59.2451 -10.7102 308° West  Level Estimated
07:39AM 59.3188 -10.8992 307° West  Level Estimated
07:40AM 59.3922 -11.0889 307° West  Level Estimated
07:41AM 59.4653 -11.2795 307° West  Level Estimated
07:42AM 59.5382 -11.4710 307° West  Level Estimated
07:43AM 59.6107 -11.6632 307° West  Level Estimated
07:44AM 59.6830 -11.8563 307° West  Level Estimated
07:45AM 59.7550 -12.0503 306° West  Level Estimated
07:46AM 59.8267 -12.2450 306° West  Level Estimated
07:47AM 59.8981 -12.4406 306° West  Level Estimated
07:48AM 59.9692 -12.6371 306° West  Level Estimated
07:49AM 60.0400 -12.8344 306° West  Level Estimated
07:50AM 60.1106 -13.0325 306° West  Level Estimated
07:51AM 60.1808 -13.2315 305° West  Level Estimated
07:52AM 60.2507 -13.4313 305° West  Level Estimated
07:53AM 60.3204 -13.6320 305° West  Level Estimated
07:54AM 60.3897 -13.8335 305° West  Level Estimated
07:55AM 60.4587 -14.0359 305° West  Level Estimated
07:56AM 60.5275 -14.2392 305° West  Level Estimated
07:57AM 60.5959 -14.4433 304° West  Level Estimated
07:58AM 60.6640 -14.6483 304° West  Level Estimated
07:59AM 60.7317 -14.8542 304° West  Level Estimated
08:00AM 60.7992 -15.0609 304° West  Level Estimated
08:01AM 60.8663 -15.2685 304° West  Level Estimated
08:02AM 60.9332 -15.4769 303° West  Level Estimated
08:03AM 60.9997 -15.6863 303° West  Level Estimated
08:04AM 61.0658 -15.8965 303° West  Level Estimated
08:05AM 61.1317 -16.1076 303° West  Level Estimated
08:06AM 61.1972 -16.3196 303° West  Level Estimated
08:07AM 61.2624 -16.5324 303° West  Level Estimated
08:08AM 61.3272 -16.7462 302° West  Level Estimated
08:09AM 61.3917 -16.9608 302° West  Level Estimated
08:10AM 61.4559 -17.1763 302° West  Level Estimated
08:11AM 61.5197 -17.3927 302° West  Level Estimated
08:12AM 61.5832 -17.6100 302° West  Level Estimated
08:13AM 61.6464 -17.8282 301° West  Level Estimated
08:14AM 61.7092 -18.0472 301° West  Level Estimated
08:15AM 61.7716 -18.2672 301° West  Level Estimated
08:16AM 61.8337 -18.4880 301° West  Level Estimated
08:17AM 61.8954 -18.7098 301° West  Level Estimated
08:18AM 61.9568 -18.9324 300° West  Level Estimated
08:19AM 62.0178 -19.1560 300° West  Level Estimated
08:20AM 62.0785 -19.3804 300° West  Level Estimated
08:21AM 62.1387 -19.6057 300° West  Level Estimated
08:22AM 62.1987 -19.8319 300° West  Level Estimated
08:23AM 62.2582 -20.0590 299° West  Level Estimated
08:24AM 62.3174 -20.2870 299° West  Level Estimated
08:25AM 62.3762 -20.5159 299° West  Level Estimated
08:26AM 62.4346 -20.7457 299° West  Level Estimated
08:27AM 62.4927 -20.9764 299° West  Level Estimated
08:28AM 62.5503 -21.2080 298° West  Level Estimated
08:29AM 62.6076 -21.4405 298° West  Level Estimated
08:30AM 62.6645 -21.6739 298° West  Level Estimated
08:31AM 62.7210 -21.9082 298° West  Level Estimated
08:32AM 62.7771 -22.1434 298° West  Level Estimated
08:33AM 62.8328 -22.3794 297° West  Level Estimated
08:34AM 62.8881 -22.6164 297° West  Level Estimated
08:35AM 62.9431 -22.8543 297° West  Level Estimated
08:36AM 62.9976 -23.0930 297° West  Level Estimated
08:37AM 63.0517 -23.3327 297° West  Level Estimated
08:38AM 63.1054 -23.5732 296° West  Level Estimated
08:39AM 63.1587 -23.8146 296° West  Level Estimated
08:40AM 63.2116 -24.0569 296° West  Level Estimated
08:41AM 63.2641 -24.3001 296° West  Level Estimated
08:42AM 63.3161 -24.5441 295° West  Level Estimated
08:43AM 63.3677 -24.7891 295° West  Level Estimated
08:44AM 63.4190 -25.0349 295° West  Level Estimated
08:45AM 63.4698 -25.2816 295° West  Level Estimated
08:46AM 63.5201 -25.5292 295° West  Level Estimated
08:47AM 63.5701 -25.7776 294° West  Level Estimated
08:48AM 63.6196 -26.0270 294° West  Level Estimated
08:49AM 63.6687 -26.2771 294° West  Level Estimated
08:50AM 63.7173 -26.5282 294° West  Level Estimated
08:51AM 63.7655 -26.7801 294° West  Level Estimated
08:52AM 63.8133 -27.0329 293° West  Level Estimated
08:53AM 63.8606 -27.2865 293° West  Level Estimated
08:54AM 63.9075 -27.5410 293° West  Level Estimated
08:55AM 63.9539 -27.7963 293° West  Level Estimated
08:56AM 63.9999 -28.0524 292° West  Level Estimated
08:57AM 64.0454 -28.3094 292° West  Level Estimated
08:58AM 64.0904 -28.5673 292° West  Level Estimated
08:59AM 64.1350 -28.8259 292° West  Level Estimated
09:00AM 64.1792 -29.0854 291° West  Level Estimated
09:01AM 64.2229 -29.3458 291° West  Level Estimated
09:02AM 64.2661 -29.6069 291° West  Level Estimated
09:03AM 64.3089 -29.8689 291° West  Level Estimated
09:04AM 64.3512 -30.1316 290° West  Level Estimated
09:05AM 64.3930 -30.3952 290° West  Level Estimated
09:06AM 64.4343 -30.6595 290° West  Level Estimated
09:07AM 64.4752 -30.9247 290° West  Level Estimated
09:08AM 64.5156 -31.1907 290° West  Level Estimated
09:09AM 64.5555 -31.4574 289° West  Level Estimated
09:10AM 64.5949 -31.7249 289° West  Level Estimated
09:11AM 64.6338 -31.9932 289° West  Level Estimated
09:12AM 64.6723 -32.2622 289° West  Level Estimated
09:13AM 64.7102 -32.5320 288° West  Level Estimated
09:14AM 64.7477 -32.8026 288° West  Level Estimated
09:15AM 64.7847 -33.0739 288° West  Level Estimated
09:16AM 64.8211 -33.3460 288° West  Level Estimated
09:17AM 64.8571 -33.6187 287° West  Level Estimated
09:18AM 64.8926 -33.8922 287° West  Level Estimated
09:19AM 64.9276 -34.1665 287° West  Level Estimated
09:20AM 64.9620 -34.4414 287° West  Level Estimated
09:21AM 64.9960 -34.7170 286° West  Level Estimated
09:22AM 65.0294 -34.9934 286° West  Level Estimated
09:23AM 65.0624 -35.2704 286° West  Level Estimated
09:24AM 65.0948 -35.5481 286° West  Level Estimated
09:25AM 65.1267 -35.8265 285° West  Level Estimated
09:26AM 65.1581 -36.1055 285° West  Level Estimated
09:27AM 65.1890 -36.3852 285° West  Level Estimated
09:28AM 65.2194 -36.6655 285° West  Level Estimated
09:29AM 65.2492 -36.9465 284° West  Level Estimated
09:30AM 65.2785 -37.2281 284° West  Level Estimated
09:31AM 65.3073 -37.5103 284° West  Level Estimated
09:32AM 65.3355 -37.7932 284° West  Level Estimated
09:33AM 65.3632 -38.0766 283° West  Level Estimated
09:34AM 65.3904 -38.3607 283° West  Level Estimated
09:35AM 65.4171 -38.6453 283° West  Level Estimated
09:36AM 65.4432 -38.9305 283° West  Level Estimated
09:37AM 65.4688 -39.2163 282° West  Level Estimated
09:38AM 65.4938 -39.5026 282° West  Level Estimated
09:39AM 65.5183 -39.7894 282° West  Level Estimated
09:40AM 65.5423 -40.0768 282° West  Level Estimated
09:41AM 65.5657 -40.3647 281° West  Level Estimated
09:42AM 65.5885 -40.6531 281° West  Level Estimated
09:43AM 65.6108 -40.9421 281° West  Level Estimated
09:44AM 65.6326 -41.2315 280° West  Level Estimated
09:45AM 65.6538 -41.5214 280° West  Level Estimated
09:46AM 65.6745 -41.8117 280° West  Level Estimated
09:47AM 65.6946 -42.1026 280° West  Level Estimated
09:48AM 65.7142 -42.3938 279° West  Level Estimated
09:49AM 65.7332 -42.6855 279° West  Level Estimated
09:50AM 65.7516 -42.9777 279° West  Level Estimated
09:51AM 65.7695 -43.2702 279° West  Level Estimated
09:52AM 65.7868 -43.5631 278° West  Level Estimated
09:53AM 65.8036 -43.8565 278° West  Level Estimated
09:54AM 65.8198 -44.1502 278° West  Level Estimated
09:55AM 65.8355 -44.4442 278° West  Level Estimated
09:56AM 65.8505 -44.7387 277° West  Level Estimated
09:57AM 65.8651 -45.0334 277° West  Level Estimated
09:58AM 65.8790 -45.3285 277° West  Level Estimated
09:59AM 65.8924 -45.6239 276° West  Level Estimated
10:00AM 65.9052 -45.9196 276° West  Level Estimated
10:01AM 65.9174 -46.2156 276° West  Level Estimated
10:02AM 65.9291 -46.5118 276° West  Level Estimated
10:03AM 65.9402 -46.8084 275° West  Level Estimated
10:04AM 65.9507 -47.1052 275° West  Level Estimated
10:05AM 65.9607 -47.4022 275° West  Level Estimated
10:06AM 65.9700 -47.6994 275° West  Level Estimated
10:07AM 65.9789 -47.9969 274° West  Level Estimated
10:08AM 65.9871 -48.2945 274° West  Level Estimated
10:09AM 65.9948 -48.5924 274° West  Level Estimated
10:10AM 66.0018 -48.8904 273° West  Level Estimated
10:11AM 66.0083 -49.1885 273° West  Level Estimated
10:12AM 66.0143 -49.4869 273° West  Level Estimated
10:13AM 66.0196 -49.7853 273° West  Level Estimated
10:14AM 66.0244 -50.0839 272° West  Level Estimated
10:15AM 66.0286 -50.3825 272° West  Level Estimated
10:16AM 66.0322 -50.6813 272° West  Level Estimated
10:17AM 66.0352 -50.9801 272° West  Level Estimated
10:18AM 66.0377 -51.2790 271° West  Level Estimated
10:19AM 66.0396 -51.5780 271° West  Level Estimated
10:20AM 66.0409 -51.8770 271° West  Level Estimated
10:21AM 66.0416 -52.1760 270° West  Level Estimated
10:22AM 66.0418 -52.4751 270° West  Level Estimated
10:23AM 66.0413 -52.7741 270° West  Level Estimated
10:24AM 66.0403 -53.0731 270° West  Level Estimated
10:25AM 66.0387 -53.3721 269° West  Level Estimated
10:26AM 66.0366 -53.6710 269° West  Level Estimated
10:27AM 66.0338 -53.9699 269° West  Level Estimated
10:28AM 66.0305 -54.2687 269° West  Level Estimated
10:29AM 66.0266 -54.5674 268° West  Level Estimated
10:30AM 66.0221 -54.8660 268° West  Level Estimated
10:31AM 66.0170 -55.1645 268° West  Level Estimated
10:32AM 66.0114 -55.4629 267° West  Level Estimated
10:33AM 66.0052 -55.7611 267° West  Level Estimated
10:34AM 65.9984 -56.0592 267° West  Level Estimated
10:35AM 65.9910 -56.3572 267° West  Level Estimated
10:36AM 65.9831 -56.6549 266° West  Level Estimated
10:37AM 65.9745 -56.9525 266° West  Level Estimated
10:38AM 65.9654 -57.2498 266° West  Level Estimated
10:39AM 65.9558 -57.5469 266° West  Level Estimated
10:40AM 65.9455 -57.8438 265° West  Level Estimated
10:41AM 65.9339 -58.1628 265° West  Level Estimated
10:42AM 65.9216 -58.4815 265° West  Level Estimated
10:43AM 65.9086 -58.7999 264° West  Level Estimated
10:44AM 65.8950 -59.1180 264° West  Level Estimated
10:45AM 65.8807 -59.4357 264° West  Level Estimated
10:46AM 65.8658 -59.7530 264° West  Level Estimated
10:47AM 65.8502 -60.0700 263° West  Level Estimated
10:48AM 65.8339 -60.3866 263° West  Level Estimated
10:49AM 65.8170 -60.7028 263° West  Level Estimated
10:50AM 65.7995 -61.0185 262° West  Level Estimated
10:51AM 65.7812 -61.3338 262° West  Level Estimated
10:52AM 65.7624 -61.6487 262° West  Level Estimated
10:53AM 65.7429 -61.9630 262° West  Level Estimated
10:54AM 65.7227 -62.2769 261° West  Level Estimated
10:55AM 65.7020 -62.5890 261° West  Level Estimated
10:56AM 65.6807 -62.9005 261° West  Level Estimated
10:57AM 65.6588 -63.2114 260° West  Level Estimated
10:58AM 65.6362 -63.5219 260° West  Level Estimated
10:59AM 65.6129 -63.8318 260° West  Level Estimated
11:00AM 65.5891 -64.1412 260° West  Level Estimated
11:01AM 65.5646 -64.4499 259° West  Level Estimated
11:02AM 65.5395 -64.7581 259° West  Level Estimated
11:03AM 65.5137 -65.0657 259° West  Level Estimated
11:04AM 65.4874 -65.3727 258° West  Level Estimated
11:05AM 65.4604 -65.6790 258° West  Level Estimated
11:06AM 65.4328 -65.9847 258° West  Level Estimated
11:07AM 65.4046 -66.2898 258° West  Level Estimated
11:08AM 65.3758 -66.5941 257° West  Level Estimated
11:09AM 65.3464 -66.8979 257° West  Level Estimated
11:10AM 65.3163 -67.2009 257° West  Level Estimated
11:11AM 65.2857 -67.5032 257° West  Level Estimated
11:12AM 65.2544 -67.8049 256° West  Level Estimated
11:13AM 65.2225 -68.1058 256° West  Level Estimated
11:14AM 65.1901 -68.4059 256° West  Level Estimated
11:15AM 65.1570 -68.7054 255° West  Level Estimated
11:16AM 65.1234 -69.0040 255° West  Level Estimated
11:17AM 65.0891 -69.3020 255° West  Level Estimated
11:18AM 65.0543 -69.5991 255° West  Level Estimated
11:19AM 65.0189 -69.8955 254° West  Level Estimated
11:20AM 64.9829 -70.1910 254° West  Level Estimated
11:21AM 64.9463 -70.4858 254° West  Level Estimated
11:22AM 64.9091 -70.7798 254° West  Level Estimated
11:23AM 64.8714 -71.0729 253° West  Level Estimated
11:24AM 64.8331 -71.3652 253° West  Level Estimated
11:25AM 64.7942 -71.6567 253° West  Level Estimated
11:26AM 64.7547 -71.9473 252° West  Level Estimated
11:27AM 64.7147 -72.2371 252° West  Level Estimated
11:28AM 64.6741 -72.5260 252° West  Level Estimated
11:29AM 64.6329 -72.8140 252° West  Level Estimated
11:30AM 64.5912 -73.1012 251° West  Level Estimated
11:31AM 64.5490 -73.3875 251° West  Level Estimated
11:32AM 64.5061 -73.6729 251° West  Level Estimated
11:33AM 64.4628 -73.9574 251° West  Level Estimated
11:34AM 64.4188 -74.2410 250° West  Level Estimated
11:35AM 64.3744 -74.5236 250° West  Level Estimated
11:36AM 64.3294 -74.8054 250° West  Level Estimated
11:37AM 64.2838 -75.0862 250° West  Level Estimated
11:38AM 64.2377 -75.3661 249° West  Level Estimated
11:39AM 64.1911 -75.6451 249° West  Level Estimated
11:40AM 64.1440 -75.9231 249° West  Level Estimated
11:41AM 64.0963 -76.2001 249° West  Level Estimated
11:42AM 64.0481 -76.4763 248° West  Level Estimated
11:43AM 63.9994 -76.7514 248° West  Level Estimated
11:44AM 63.9501 -77.0256 248° West  Level Estimated
11:45AM 63.9004 -77.2989 248° West  Level Estimated
11:46AM 63.8501 -77.5711 247° West  Level Estimated
11:47AM 63.7993 -77.8424 247° West  Level Estimated
11:48AM 63.7480 -78.1127 247° West  Level Estimated
11:49AM 63.6963 -78.3820 247° West  Level Estimated
11:50AM 63.6440 -78.6503 246° West  Level Estimated
11:51AM 63.5912 -78.9177 246° West  Level Estimated
11:52AM 63.5379 -79.1840 246° West  Level Estimated
11:53AM 63.4841 -79.4493 246° West  Level Estimated
11:54AM 63.4298 -79.7137 245° Southwest  Level Estimated
11:55AM 63.3751 -79.9770 245° Southwest  Level Estimated
11:56AM 63.3199 -80.2394 245° Southwest  Level Estimated
11:57AM 63.2641 -80.5007 245° Southwest  Level Estimated
11:58AM 63.2080 -80.7610 245° Southwest  Level Estimated
11:59AM 63.1513 -81.0203 244° Southwest  Level Estimated
12:00PM 63.0941 -81.2786 244° Southwest  Level Estimated
12:01PM 63.0365 -81.5358 244° Southwest  Level Estimated
12:02PM 62.9785 -81.7921 244° Southwest  Level Estimated
12:03PM 62.9199 -82.0473 243° Southwest  Level Estimated
12:04PM 62.8610 -82.3015 243° Southwest  Level Estimated
12:05PM 62.8015 -82.5547 243° Southwest  Level Estimated
12:06PM 62.7416 -82.8069 243° Southwest  Level Estimated
12:07PM 62.6813 -83.0580 242° Southwest  Level Estimated
12:08PM 62.6204 -83.3081 242° Southwest  Level Estimated
12:09PM 62.5592 -83.5572 242° Southwest  Level Estimated
12:10PM 62.4975 -83.8052 242° Southwest  Level Estimated
12:11PM 62.4354 -84.0523 242° Southwest  Level Estimated
12:12PM 62.3728 -84.2983 241° Southwest  Level Estimated
12:13PM 62.3099 -84.5432 241° Southwest  Level Estimated
12:14PM 62.2464 -84.7872 241° Southwest  Level Estimated
12:15PM 62.1826 -85.0301 241° Southwest  Level Estimated
12:16PM 62.1183 -85.2720 240° Southwest  Level Estimated
12:17PM 62.0537 -85.5128 240° Southwest  Level Estimated
12:18PM 61.9885 -85.7527 240° Southwest  Level Estimated
12:19PM 61.9230 -85.9915 240° Southwest  Level Estimated
12:20PM 61.8571 -86.2293 240° Southwest  Level Estimated
12:21PM 61.7908 -86.4660 239° Southwest  Level Estimated
12:22PM 61.7240 -86.7018 239° Southwest  Level Estimated
12:23PM 61.6569 -86.9365 239° Southwest  Level Estimated
12:24PM 61.5893 -87.1702 239° Southwest  Level Estimated
12:25PM 61.5214 -87.4028 239° Southwest  Level Estimated
12:26PM 61.4530 -87.6345 238° Southwest  Level Estimated
12:27PM 61.3843 -87.8651 238° Southwest  Level Estimated
12:28PM 61.3152 -88.0948 238° Southwest  Level Estimated
12:29PM 61.2457 -88.3234 238° Southwest  Level Estimated
12:30PM 61.1758 -88.5510 238° Southwest  Level Estimated
12:31PM 61.1055 -88.7776 237° Southwest  Level Estimated
12:32PM 61.0349 -89.0032 237° Southwest  Level Estimated
12:33PM 60.9639 -89.2277 237° Southwest  Level Estimated
12:34PM 60.8925 -89.4513 237° Southwest  Level Estimated
12:35PM 60.8207 -89.6739 237° Southwest  Level Estimated
12:36PM 60.7486 -89.8955 236° Southwest  Level Estimated
12:37PM 60.6761 -90.1160 236° Southwest  Level Estimated
12:38PM 60.6032 -90.3356 236° Southwest  Level Estimated
12:39PM 60.5300 -90.5542 236° Southwest  Level Estimated
12:40PM 60.4565 -90.7718 236° Southwest  Level Estimated
12:41PM 60.3826 -90.9884 235° Southwest  Level Estimated
12:42PM 60.3083 -91.2041 235° Southwest  Level Estimated
12:43PM 60.2337 -91.4187 235° Southwest  Level Estimated
12:44PM 60.1587 -91.6324 235° Southwest  Level Estimated
12:45PM 60.0834 -91.8451 235° Southwest  Level Estimated
12:46PM 60.0078 -92.0569 235° Southwest  Level Estimated
12:47PM 59.9318 -92.2676 234° Southwest  Level Estimated
12:48PM 59.8555 -92.4774 234° Southwest  Level Estimated
12:49PM 59.7788 -92.6862 234° Southwest  Level Estimated
12:50PM 59.7019 -92.8941 234° Southwest  Level Estimated
12:50PM 62.0833 -103.2167 233° Southwest 480 552 38,000  Level Edmonton Center
12:51PM 59.6245 -93.1011 234° Southwest  Level Estimated
12:51PM 61.9833 -103.4000 221° Southwest 470 541 38,000  Level Edmonton Center
12:52PM 59.5469 -93.3070 233° Southwest  Level Estimated
12:52PM 61.8833 -103.5833 221° Southwest 480 552 38,000  Level Edmonton Center
12:53PM 59.4690 -93.5120 233° Southwest  Level Estimated
12:53PM 61.7833 -103.7667 221° Southwest 480 552 38,000  Level Edmonton Center
12:54PM 59.3907 -93.7161 233° Southwest  Level Estimated
12:54PM 61.6667 -103.9500 217° Southwest 480 552 38,000  Level Edmonton Center
12:55PM 59.3121 -93.9193 233° Southwest  Level Estimated
12:55PM 61.5667 -104.1333 221° Southwest 480 552 38,000  Level Edmonton Center
12:56PM 61.4667 -104.3167 221° Southwest 480 552 38,000  Level Edmonton Center
12:57PM 61.3667 -104.5000 221° Southwest 480 552 38,000  Level Edmonton Center
12:58PM 61.2667 -104.6667 219° Southwest 480 552 38,000  Level Edmonton Center
12:59PM 61.1500 -104.8500 217° Southwest 480 552 38,000  Level Edmonton Center
01:00PM 61.0500 -105.0333 222° Southwest 480 552 38,000  Level Edmonton Center
01:01PM 60.9167 -105.2000 211° Southwest 480 552 38,000  Level Edmonton Center
01:02PM 60.8167 -105.3667 219° Southwest 480 552 38,000  Level Edmonton Center
01:03PM 60.7167 -105.5500 222° Southwest 480 552 38,000  Level Edmonton Center
01:04PM 60.6167 -105.7167 219° Southwest 480 552 38,000  Level Edmonton Center
01:05PM 60.5000 -105.8833 215° Southwest 480 552 38,000  Level Edmonton Center
01:06PM 60.4000 -106.0500 219° Southwest 480 552 38,000  Level Edmonton Center
01:07PM 60.2833 -106.2167 215° Southwest 480 552 38,000  Level Edmonton Center
01:08PM 60.1833 -106.3833 220° Southwest 480 552 38,000  Level Edmonton Center
01:09PM 60.0667 -106.5500 216° Southwest 480 552 38,000  Level Edmonton Center
01:10PM 59.9667 -106.7167 220° Southwest 490 564 38,000  Level Edmonton Center
01:11PM 59.8667 -106.8833 220° Southwest 490 564 38,000  Level Edmonton Center
01:12PM 59.7333 -107.0500 212° Southwest 480 552 38,000  Level Edmonton Center
01:13PM 59.6333 -107.2000 217° Southwest 490 564 38,000  Level Edmonton Center
01:14PM 59.5167 -107.3667 216° Southwest 490 564 38,000  Level Edmonton Center
01:15PM 59.4000 -107.5333 216° Southwest 490 564 38,000  Level Edmonton Center
01:16PM 59.3000 -107.6833 217° Southwest 490 564 38,000  Level Edmonton Center
01:17PM 59.1833 -107.8333 213° Southwest 490 564 38,000  Level Edmonton Center
01:18PM 59.0667 -108.0000 216° Southwest 490 564 38,000  Level Edmonton Center
01:19PM 58.9667 -108.1500 218° Southwest 480 552 38,000  Level Edmonton Center
01:20PM 58.8500 -108.3000 214° Southwest 480 552 38,000  Level Edmonton Center
01:21PM 58.7333 -108.4667 217° Southwest 480 552 38,000  Level Edmonton Center
01:22PM 58.6333 -108.6167 218° Southwest 480 552 38,000  Level Edmonton Center
01:23PM 58.5333 -108.7333 211° Southwest 480 552 38,000  Level Edmonton Center
01:24PM 58.4167 -108.8833 214° Southwest 480 552 38,000  Level Edmonton Center
01:25PM 58.3000 -109.0333 214° Southwest 480 552 38,000  Level Edmonton Center
01:26PM 58.1833 -109.2167 220° Southwest 480 552 38,000  Level Edmonton Center
01:27PM 58.0833 -109.3333 212° Southwest 480 552 38,000  Level Edmonton Center
01:28PM 57.9667 -109.5000 217° Southwest 480 552 38,000  Level Edmonton Center
01:29PM 57.8500 -109.6167 208° Southwest 480 552 38,000  Level Edmonton Center
01:30PM 57.7500 -109.7667 219° Southwest 480 552 38,000  Level Edmonton Center
01:31PM 57.6167 -109.9000 208° Southwest 480 552 38,000  Level Edmonton Center
01:32PM 57.5167 -110.0500 219° Southwest 480 552 38,000  Level Edmonton Center
01:33PM 57.4000 -110.1833 212° Southwest 480 552 38,000  Level Edmonton Center
01:34PM 57.3000 -110.3333 219° Southwest 480 552 38,000  Level Edmonton Center
01:35PM 57.1667 -110.4667 208° Southwest 480 552 38,000  Level Edmonton Center
01:36PM 57.0667 -110.6167 219° Southwest 480 552 38,000  Level Edmonton Center
01:37PM 56.9500 -110.7500 212° Southwest 470 541 38,000  Level Edmonton Center
01:38PM 56.8500 -110.8833 216° Southwest 470 541 38,000  Level Edmonton Center
01:39PM 56.7333 -111.0000 209° Southwest 470 541 38,000  Level Edmonton Center
01:40PM 56.6167 -111.1333 212° Southwest 470 541 38,000  Level Edmonton Center
01:41PM 56.5000 -111.2667 212° Southwest 480 552 38,000  Level Edmonton Center
01:42PM 56.4000 -111.4000 216° Southwest 470 541 38,000  Level Edmonton Center
01:43PM 56.2833 -111.5333 212° Southwest 470 541 38,000  Level Edmonton Center
01:44PM 56.1667 -111.6333 206° Southwest 480 552 38,000  Level Edmonton Center
01:45PM 56.0500 -111.7667 213° Southwest 480 552 38,000  Level Edmonton Center
01:46PM 55.9500 -111.9000 217° Southwest 480 552 38,000  Level Edmonton Center
01:47PM 55.8167 -112.0333 209° Southwest 480 552 38,000  Level Edmonton Center
01:48PM 55.7000 -112.1667 213° Southwest 480 552 38,000  Level Edmonton Center
01:54PM 54.9847 -112.8944 211° Southwest 483 556 38,000  Level FlightAware ADS-B (CYXD)
01:56PM 54.7773 -113.1034 210° Southwest 490 564 38,000  Level FlightAware ADS-B (CYXD)
01:57PM 54.7146 -113.1662 210° Southwest 490 564 38,000  Level FlightAware ADS-B (CYXD)
01:57PM 54.6255 -113.2559 210° Southwest 482 555 38,000  Level FlightAware ADS-B (CYXD)
01:58PM 54.5667 -113.3141 210° Southwest 489 563 38,000  Level FlightAware ADS-B (CYXD)
01:58PM 54.5075 -113.3722 210° Southwest 490 564 38,000  Level FlightAware ADS-B (CYXD)
01:59PM 54.4486 -113.4303 210° Southwest 483 556 38,000  Level FlightAware ADS-B (CYXD)
01:59PM 54.3914 -113.4862 210° Southwest 490 564 38,000  Level FlightAware ADS-B (CYXD)
02:00PM 54.3409 -113.5362 210° Southwest 483 556 38,000  Level FlightAware ADS-B (CYXD)
02:01PM 54.1882 -113.6856 210° Southwest 489 563 38,000  Level FlightAware ADS-B (CYXD)
02:02PM 54.0940 -113.7765 210° Southwest 487 560 38,000  Level FlightAware ADS-B (CYXD)
02:02PM 54.0299 -113.8385 209° Southwest 485 558 38,000  Level FlightAware ADS-B (CYXD)
02:03PM 53.9717 -113.8945 209° Southwest 484 557 38,000  Level FlightAware ADS-B (CYXD)
02:03PM 53.9138 -113.9484 209° Southwest 483 556 38,000  Level FlightAware ADS-B (CYXD)
02:04PM 53.8550 -114.0057 209° Southwest 482 555 38,000  Level FlightAware ADS-B (CYXD)
02:04PM 53.7963 -114.0612 209° Southwest 482 555 38,000  Level FlightAware ADS-B (CYXD)
02:05PM 53.7388 -114.1145 209° Southwest 482 555 38,000  Level FlightAware ADS-B (CYXD)
02:05PM 53.6626 -114.1879 209° Southwest 482 555 38,000  Level FlightAware ADS-B (CYXD)
02:06PM 53.6022 -114.2444 209° Southwest 480 552 38,000  Level FlightAware ADS-B (CYXD)
02:07PM 53.5400 -114.3025 209° Southwest 479 551 38,000  Level FlightAware ADS-B (CYXD)
02:07PM 53.4680 -114.3690 209° Southwest 475 547 38,000  Level FlightAware ADS-B (CYXD)
02:08PM 53.3953 -114.4370 209° Southwest 475 547 38,000  Level FlightAware ADS-B (CYXD)
02:08PM 53.3394 -114.4885 209° Southwest 475 547 38,000  Level FlightAware ADS-B (CYXD)
02:09PM 53.2519 -114.5701 209° Southwest 474 545 38,000  Level FlightAware ADS-B (CYXD)
02:10PM 53.1951 -114.6212 209° Southwest 474 545 38,000  Level FlightAware ADS-B (CYXD)
02:10PM 53.1107 -114.6984 209° Southwest 474 545 38,000  Level FlightAware ADS-B (CYXD)
02:11PM 53.0230 -114.7786 209° Southwest 474 545 38,000  Level FlightAware ADS-B (CYXD)
02:12PM 52.9101 -114.8817 209° Southwest 475 547 38,000  Level FlightAware ADS-B (CYXD)
02:13PM 52.8310 -114.9532 209° Southwest 477 549 38,000  Level FlightAware ADS-B (CYXD)
02:14PM 52.6833 -115.0167 209° Southwest 480 552 38,000  Level Vancouver Center
02:15PM 52.5833 -115.1333 215° Southwest 480 552 38,000  Level Vancouver Center
02:16PM 52.4667 -115.2333 208° Southwest 480 552 38,000  Level Vancouver Center
02:17PM 52.3667 -115.3333 211° Southwest 470 541 38,000  Level Vancouver Center
02:18PM 52.2333 -115.4500 208° Southwest 470 541 38,000  Level Vancouver Center
02:19PM 52.1167 -115.5500 208° Southwest 470 541 38,000  Level Vancouver Center
02:20PM 52.0000 -115.6500 208° Southwest 470 541 38,000  Level Vancouver Center
02:21PM 51.8833 -115.7333 204° Southwest 470 541 38,000  Level Vancouver Center
02:22PM 51.7667 -115.8333 208° Southwest 470 541 38,000  Level Vancouver Center
02:23PM 51.6500 -115.9333 208° Southwest 480 552 38,000  Level Vancouver Center
02:24PM 51.5333 -116.0333 208° Southwest 480 552 38,000  Level Vancouver Center
02:25PM 51.4000 -116.1333 205° Southwest 470 541 38,000  Level Vancouver Center
02:26PM 51.3167 -116.2333 217° Southwest 470 541 38,000  Level Vancouver Center
02:27PM 51.1833 -116.3333 205° Southwest 480 552 38,000  Level Vancouver Center
02:28PM 51.0833 -116.4333 212° Southwest 480 552 38,000  Level Vancouver Center
02:29PM 50.9500 -116.5333 205° Southwest 470 541 38,000  Level Vancouver Center
02:30PM 50.8333 -116.6333 208° Southwest 480 552 38,000  Level Vancouver Center
02:31PM 50.7000 -116.7000 198° South 480 552 38,000  Level Vancouver Center
02:32PM 50.6000 -116.8000 212° Southwest 480 552 38,000  Level Vancouver Center
02:33PM 50.4667 -116.9000 206° Southwest 480 552 38,000  Level Vancouver Center
02:34PM 50.3500 -116.9833 205° Southwest 480 552 38,000  Level Vancouver Center
02:35PM 50.2333 -117.0667 205° Southwest 480 552 38,000  Level Vancouver Center
02:36PM 50.1167 -117.1500 205° Southwest 480 552 38,000  Level Vancouver Center
02:37PM 49.9833 -117.2500 206° Southwest 480 552 38,000  Level Vancouver Center
02:38PM 49.8667 -117.3167 200° South 480 552 38,000  Level Vancouver Center
02:39PM 49.7500 -117.4167 209° Southwest 480 552 38,000  Level Vancouver Center
02:40PM 49.6333 -117.5000 205° Southwest 480 552 38,000  Level Vancouver Center
02:41PM 49.5000 -117.5667 198° South 480 552 38,000  Level Vancouver Center
02:42PM 49.3667 -117.6667 206° Southwest 480 552 38,000  Level Vancouver Center
02:43PM 49.2667 -117.7667 213° Southwest 480 552 38,000  Level Vancouver Center
02:44PM 49.1333 -117.8500 202° Southwest 480 552 38,000  Level Vancouver Center
02:45PM 49.0167 -117.9167 201° Southwest 480 552 38,000  Level Vancouver Center
02:46PM 48.8833 -118.0000 202° Southwest 480 552 38,000  Level Vancouver Center
02:47PM 48.7833 -118.1000 213° Southwest 480 552 38,000  Level Vancouver Center
02:48PM 48.6500 -118.1833 202° Southwest 480 552 38,000  Level Vancouver Center
02:49PM 48.5333 -118.2500 201° Southwest 480 552 38,000  Level Vancouver Center
02:50PM 48.4000 -118.3500 206° Southwest 480 552 38,000  Level Vancouver Center
02:51PM 48.2833 -118.4333 205° Southwest 480 552 38,000  Level Vancouver Center
02:51PM 48.2578 -118.4706 224° Southwest 478 550 38,000  Level Seattle Center
02:57PM 47.4853 -118.9720 203° Southwest 476 548 38,000  Level FlightAware ADS-B
02:58PM 47.4232 -119.0120 203° Southwest 477 549 38,000  Level FlightAware ADS-B
02:59PM 47.3202 -119.0780 203° Southwest 480 552 38,000  Level FlightAware ADS-B
02:59PM 47.2573 -119.1180 203° Southwest 482 555 38,000  Level FlightAware ADS-B
03:00PM 47.1839 -119.1640 203° Southwest 483 556 38,000  Level FlightAware ADS-B
03:00PM 47.1222 -119.2040 203° Southwest 483 556 38,000  Level FlightAware ADS-B
03:01PM 47.0578 -119.2440 203° Southwest 483 556 38,000  Level FlightAware ADS-B
03:01PM 46.9939 -119.2840 203° Southwest 482 555 38,000  Level FlightAware ADS-B
03:02PM 46.9039 -119.3400 203° Southwest 481 554 38,000  Level FlightAware ADS-B
03:03PM 46.8422 -119.3790 203° Southwest 479 551 38,000  Level FlightAware ADS-B
03:05PM 46.6206 -119.5160 203° Southwest 477 549 38,000  Level FlightAware ADS-B
03:05PM 46.5506 -119.5600 203° Southwest 477 549 38,000  Level FlightAware ADS-B
03:06PM 46.4361 -119.6300 203° Southwest 476 548 38,000  Level FlightAware ADS-B
03:07PM 46.2731 -119.7290 203° Southwest 474 545 38,000  Level FlightAware ADS-B
03:14PM 45.4492 -120.1075 197° South 469 540 38,000  Level FlightAware ADS-B
03:15PM 45.3739 -120.1411 197° South 471 542 38,000  Level FlightAware ADS-B
03:15PM 45.2853 -120.1790 197° South 471 542 38,000 120 Level FlightAware ADS-B
03:20PM 44.6331 -120.4587 197° South 480 552 39,000 120 Climbing FlightAware ADS-B
03:23PM 44.3214 -120.5896 197° South 473 544 39,000  Level FlightAware ADS-B
03:26PM 43.9491 -120.7442 197° South 471 542 39,000  Level FlightAware ADS-B
03:27PM 43.8662 -120.7785 197° South 470 541 39,000 60 Level FlightAware ADS-B
03:27PM 43.7691 -120.8186 197° South 465 535 39,100  Climbing FlightAware ADS-B
03:28PM 43.6869 -120.8526 197° South 465 535 39,000 -120 Descending FlightAware ADS-B
03:29PM 43.5814 -120.8953 196° South 461 531 39,000  Level FlightAware ADS-B
03:30PM 43.4909 -120.9324 196° South 457 526 39,000  Level FlightAware ADS-B
03:30PM 43.4011 -120.9685 197° South 454 522 39,000  Level FlightAware ADS-B
03:31PM 43.3564 -120.9875 197° South 456 525 39,000  Level Seattle Center
03:32PM 43.2353 -121.0367 196° South 454 522 39,000  Level Seattle Center
03:33PM 43.0900 -121.0961 197° South 455 524 39,000  Level Seattle Center
03:34PM 42.9669 -121.1433 196° South 458 527 39,000  Level Seattle Center
03:35PM 42.8439 -121.1931 197° South 461 531 39,000  Level Seattle Center
03:36PM 42.7222 -121.2406 196° South 457 526 39,000  Level Seattle Center
03:37PM 42.6006 -121.2892 196° South 458 527 39,000  Level Seattle Center
03:38PM 42.4761 -121.3372 196° South 466 536 39,000  Level Seattle Center
03:39PM 42.3525 -121.3861 196° South 465 535 39,000  Level Seattle Center
03:40PM 42.2283 -121.4364 197° South 465 535 39,000  Level Seattle Center
03:41PM 42.1028 -121.4850 196° South 463 533 39,000  Level Seattle Center
03:42PM 41.9781 -121.5347 197° South 462 532 39,000  Level Seattle Center
03:43PM 41.8525 -121.5831 196° South 464 534 39,000  Level Seattle Center
03:44PM 41.7269 -121.6297 196° South 467 537 39,000  Level Seattle Center
03:50PM 40.9725 -121.9005 195° South 475 547 39,000  Level FlightAware ADS-B (KAHC)
03:51PM 40.9050 -121.9241 195° South 474 545 39,000  Level FlightAware ADS-B (KAHC)
03:51PM 40.8288 -121.9507 195° South 473 544 39,000  Level FlightAware ADS-B (KAHC)
03:52PM 40.7430 -121.9806 195° South 470 541 39,000  Level FlightAware ADS-B (KAHC)
03:52PM 40.6645 -122.0074 195° South 467 537 39,000  Level FlightAware ADS-B (KAHC)
03:53PM 40.6008 -122.0299 195° South 466 536 39,000  Level FlightAware ADS-B (KAHC)
03:54PM 40.5748 -122.0385 194° South 467 537 39,000  Level FlightAware ADS-B
03:54PM 40.4502 -122.0815 195° South 469 540 39,000  Level FlightAware ADS-B (KAHC)
03:55PM 40.3620 -122.1118 195° South 469 540 39,000  Level FlightAware ADS-B (KAHC)
03:55PM 40.2984 -122.1334 195° South 469 540 39,000  Level FlightAware ADS-B (KAHC)
03:56PM 40.2361 -122.1549 195° South 468 539 39,000  Level FlightAware ADS-B (KAHC)
03:56PM 40.2665 -122.1442 194° South 468 539 39,000  Level FlightAware ADS-B
03:57PM 40.1166 -122.1957 195° South 467 537 39,000  Level FlightAware ADS-B (KAHC)
03:58PM 40.0248 -122.2269 195° South 465 535 39,000  Level FlightAware ADS-B (KAHC)
03:58PM 40.0215 -122.2276 195° South 465 535 39,000  Level FlightAware ADS-B (KAHC)
03:59PM 39.9117 -122.2650 194° South 466 536 39,000  Level FlightAware ADS-B
03:59PM 39.8278 -122.2930 194° South 463 533 39,000  Level FlightAware ADS-B
04:00PM 39.7449 -122.3210 194° South 460 529 39,000  Level FlightAware ADS-B
04:01PM 39.6687 -122.3469 194° South 466 536 39,000 -360 Level FlightAware ADS-B
04:02PM 39.5330 -122.3920 194° South 473 544 38,400 -960 Descending FlightAware ADS-B
04:02PM 39.4460 -122.4212 194° South 484 557 37,400 -1,140 Descending FlightAware ADS-B
04:04PM 39.1851 -122.5081 196° South 480 552 35,500 -1,260 Descending FlightAware ADS-B
04:05PM 39.1099 -122.5547 210° Southwest 437 503 34,100 -2,100 Descending FlightAware ADS-B
04:06PM 39.0430 -122.6041 210° Southwest 407 468 32,800 -1,980 Descending FlightAware ADS-B
04:06PM 38.9768 -122.6545 210° Southwest 380 437 31,400 -1,860 Descending FlightAware ADS-B
04:07PM 38.9220 -122.6960 211° Southwest 374 430 30,400 -1,380 Descending FlightAware ADS-B
04:08PM 38.8607 -122.7431 210° Southwest 366 421 29,700 -1,020 Descending FlightAware ADS-B
04:08PM 38.8111 -122.7803 209° Southwest 364 419 29,100 -1,440 Descending FlightAware ADS-B
04:09PM 38.7431 -122.8123 192° South 377 434 27,800 -2,040 Descending FlightAware ADS-B
04:10PM 38.6695 -122.8217 183° South 388 447 26,400 -2,280 Descending FlightAware ADS-B
04:10PM 38.5968 -122.8264 182° South 390 449 24,800 -2,340 Descending FlightAware ADS-B
04:11PM 38.5231 -122.8318 183° South 390 449 23,300 -2,280 Descending FlightAware ADS-B
04:12PM 38.4531 -122.8378 183° South 389 448 21,800 -2,340 Descending FlightAware ADS-B
04:13PM 38.3708 -122.8445 183° South 387 445 19,600 -2,220 Descending FlightAware ADS-B
04:13PM 38.2818 -122.8517 183° South 382 440 18,100 -1,860 Descending FlightAware ADS-B
04:15PM 38.1346 -122.8248 153° Southeast 387 445 15,800 -1,980 Descending FlightAware ADS-B
04:15PM 38.0823 -122.7903 152° Southeast 389 448 14,200 -2,160 Descending FlightAware ADS-B
04:16PM 38.0195 -122.7490 153° Southeast 385 443 13,100 -2,040 Descending FlightAware ADS-B
04:17PM 37.9324 -122.6931 153° Southeast 368 423 11,400 -2,220 Descending FlightAware ADS-B (KPAO)
04:17PM 37.9085 -122.6766 149° Southeast 366 421 10,800 -600 Descending FlightAware ADS-B (KPAO)
04:18PM 37.8478 -122.6175 140° Southeast 367 422 10,800  Level FlightAware ADS-B (KPAO)
04:18PM 37.8331 -122.6020 140° Southeast 367 422 10,800  Level FlightAware ADS-B
04:18PM 37.7875 -122.5520 140° Southeast 367 422 10,800  Level FlightAware ADS-B
04:19PM 37.7426 -122.5050 140° Southeast 367 422 10,800  Level FlightAware ADS-B
04:19PM 37.7025 -122.4630 140° Southeast 336 387 10,800  Level FlightAware ADS-B
04:20PM 37.6635 -122.4210 140° Southeast 308 354 10,800  Level FlightAware ADS-B
04:21PM 37.6325 -122.3880 140° Southeast 288 331 10,800  Level FlightAware ADS-B
04:21PM 37.6248 -122.3790 139° Southeast 288 331 10,800  Level FlightAware ADS-B (KPAO)
04:21PM 37.6190 -122.3730 137° Southeast 289 333 10,800 -600 Level FlightAware ADS-B
04:21PM 37.6011 -122.3540 145° Southeast 284 327 10,600 -1,020 Descending FlightAware ADS-B
04:21PM 37.5813 -122.3383 150° Southeast 281 323 10,200 -1,200 Descending FlightAware ADS-B (KPAO)
04:21PM 37.5777 -122.3360 150° Southeast 280 322 10,200 -1,020 Level FlightAware ADS-B
04:22PM 37.5604 -122.3240 151° Southeast 278 320 9,900 -1,200 Descending FlightAware ADS-B
04:22PM 37.5431 -122.3110 151° Southeast 277 319 9,600 -1,080 Descending FlightAware ADS-B
04:22PM 37.5436 -122.3120 151° Southeast 277 319 9,500 -780 Descending FlightAware ADS-B (KPAO)
04:22PM 37.5255 -122.3000 151° Southeast 273 314 9,400 -780 Descending FlightAware ADS-B
04:23PM 37.5005 -122.2810 151° Southeast 265 305 9,100 -1,140 Descending FlightAware ADS-B
04:23PM 37.4964 -122.2790 151° Southeast 264 304 8,900 -1,200 Descending FlightAware ADS-B (KPAO)
04:23PM 37.4841 -122.2700 151° Southeast 261 300 8,800 -1,020 Descending FlightAware ADS-B
04:23PM 37.4821 -122.2685 151° Southeast 262 302 8,500 -1,440 Descending FlightAware ADS-B (KPAO)
04:23PM 37.4669 -122.2580 150° Southeast 260 299 8,400 -1,620 Descending FlightAware ADS-B
04:23PM 37.4508 -122.2460 151° Southeast 258 297 8,000 -1,440 Descending FlightAware ADS-B
04:23PM 37.4446 -122.2410 147° Southeast 260 299 7,900 -1,380 Descending FlightAware ADS-B
04:24PM 37.4417 -122.2390 143° Southeast 260 299 7,800 -1,740 Descending FlightAware ADS-B
04:24PM 37.4382 -122.2340 133° Southeast 260 299 7,700 -1,740 Descending FlightAware ADS-B
04:24PM 37.4356 -122.2310 128° Southeast 261 300 7,600 -900 Descending FlightAware ADS-B
04:24PM 37.4334 -122.2260 120° Southeast 260 299 7,600 -720 Level FlightAware ADS-B
04:24PM 37.4308 -122.2190 115° Southeast 259 298 7,500 -900 Descending FlightAware ADS-B
04:24PM 37.4276 -122.2060 105° East 253 291 7,400 -900 Descending FlightAware ADS-B
04:24PM 37.4265 -122.2006 103° East 247 284 7,300 -1,200 Descending FlightAware ADS-B (KPAO)
04:24PM 37.4252 -122.1920 102° East 246 283 7,200 -1,380 Descending FlightAware ADS-B
04:24PM 37.4244 -122.1870 98° East 243 280 7,100 -1,020 Descending FlightAware ADS-B
04:24PM 37.4258 -122.1670 74° East 237 273 6,900 -1,080 Descending FlightAware ADS-B
04:24PM 37.4270 -122.1630 68° East 234 269 6,800 -1,020 Descending FlightAware ADS-B
04:24PM 37.4285 -122.1600 62° Northeast 231 266 6,800 -1,020 Level FlightAware ADS-B
04:25PM 37.4305 -122.1560 56° Northeast 227 261 6,700 -1,500 Descending FlightAware ADS-B
04:25PM 37.4241 -122.1837 58° Northeast 228 262 6,700 -1,500 Level FlightAware ADS-B (KPAO)
04:25PM 37.4331 -122.1530 45° Northeast 221 254 6,600 -2,040 Descending FlightAware ADS-B
04:25PM 37.4354 -122.1500 40° Northeast 218 251 6,500 -1,500 Descending FlightAware ADS-B
04:25PM 37.4277 -122.1621 45° Northeast 221 254 6,500 -2,040 Level FlightAware ADS-B
04:25PM 37.4379 -122.1480 36° Northeast 214 246 6,400 -2,040 Descending FlightAware ADS-B
04:25PM 37.4406 -122.1460 33° Northeast 212 244 6,300 -1,740 Descending FlightAware ADS-B
04:25PM 37.4439 -122.1430 30° Northeast 211 243 6,200 -1,440 Descending FlightAware ADS-B
04:25PM 37.4550 -122.1350 29° Northeast 209 241 5,900 -1,440 Descending FlightAware ADS-B
04:25PM 37.4580 -122.1330 27° Northeast 207 238 5,800 -2,040 Descending FlightAware ADS-B
04:25PM 37.4608 -122.1320 24° Northeast 206 237 5,700 -2,580 Descending FlightAware ADS-B
04:25PM 37.4640 -122.1300 18° North 204 235 5,500 -2,400 Descending FlightAware ADS-B
04:25PM 37.4645 -122.1301 18° North 204 235 5,500  Level FlightAware ADS-B (KPAO)
04:25PM 37.4671 -122.1290 North 200 230 5,500 -2,040 Level FlightAware ADS-B
04:25PM 37.4702 -122.1290 North 197 227 5,300 -2,580 Descending FlightAware ADS-B
04:25PM 37.4734 -122.1290 351° North 193 222 5,200 -2,040 Descending FlightAware ADS-B
04:25PM 37.4762 -122.1300 344° North 192 221 5,100 -1,740 Descending FlightAware ADS-B
04:26PM 37.4793 -122.1320 336° Northwest 190 219 5,000 -1,500 Descending FlightAware ADS-B
04:26PM 37.4825 -122.1340 331° Northwest 188 216 4,900 -1,740 Descending FlightAware ADS-B
04:26PM 37.4848 -122.1360 329° Northwest 187 215 4,800 -1,500 Descending FlightAware ADS-B
04:26PM 37.4903 -122.1402 327° Northwest 183 211 4,600 -1,620 Descending FlightAware ADS-B (KPAO)
04:26PM 37.4955 -122.1440 326° Northwest 180 207 4,400 -1,740 Descending FlightAware ADS-B
04:26PM 37.5060 -122.1530 328° Northwest 179 206 4,000 -1,560 Descending FlightAware ADS-B
04:26PM 37.5167 -122.1610 328° Northwest 178 205 3,600 -1,560 Descending FlightAware ADS-B
04:27PM 37.5249 -122.1680 328° Northwest 181 208 3,300 -1,500 Descending FlightAware ADS-B
04:27PM 37.5284 -122.1710 326° Northwest 180 207 3,200 -1,680 Descending FlightAware ADS-B
04:27PM 37.5319 -122.1740 321° Northwest 181 208 3,000 -1,380 Descending FlightAware ADS-B
04:27PM 37.5340 -122.1770 315° West 179 206 3,000 -780 Level FlightAware ADS-B
04:27PM 37.5364 -122.1800 309° West 179 206 2,900 -1,500 Descending FlightAware ADS-B
04:27PM 37.5380 -122.1830 305° West 179 206 2,800 -1,500 Descending FlightAware ADS-B
04:27PM 37.5400 -122.1870 301° West 177 204 2,700 -1,200 Descending FlightAware ADS-B
04:27PM 37.5420 -122.1910 298° West 177 204 2,600 -1,080 Descending FlightAware ADS-B
04:27PM 37.5463 -122.2020 297° West 171 197 2,400 -720 Descending FlightAware ADS-B
04:27PM 37.5484 -122.2080 298° West 169 194 2,400 -900 Level FlightAware ADS-B
04:28PM 37.5538 -122.2200 298° West 157 181 2,100 -1,080 Descending FlightAware ADS-B
04:28PM 37.5538 -122.2201 298° West 156 180 2,100 -420 Level FlightAware ADS-B (KPAO)
04:28PM 37.5590 -122.2330 298° West 157 181 2,000 -840 Descending FlightAware ADS-B
04:28PM 37.5618 -122.2390 298° West 156 180 1,800 -1,140 Descending FlightAware ADS-B
04:28PM 37.5665 -122.2510 298° West 155 178 1,600 -660 Descending FlightAware ADS-B
04:29PM 37.5713 -122.2620 298° West 151 174 1,500 -600 Descending FlightAware ADS-B
04:29PM 37.5761 -122.2730 298° West 143 165 1,300 -840 Descending FlightAware ADS-B
04:29PM 37.5787 -122.2800 298° West 139 160 1,200 -840 Descending FlightAware ADS-B
04:29PM 37.5809 -122.2850 298° West 138 159 1,100 -840 Descending FlightAware ADS-B
04:29PM 37.5872 -122.3000 297° West 138 159 800 -720 Descending FlightAware ADS-B
04:30PM 37.5914 -122.3100 298° West 140 161 700 -600 Descending FlightAware ADS-B
04:30PM 37.5970 -122.3230 298° West 138 159 500 -840 Descending FlightAware ADS-B
04:30PM 37.6003 -122.3310 297° West 137 158 300 -960 Descending FlightAware ADS-B
04:30PM 37.6049 -122.3420 298° West 138 159 100 -840 Descending FlightAware ADS-B